Time;durP1;ratioP1;P1;durP2;ratioP2;P2;SDS_P1;SDS_P2;PMS_P1;PMS_P2;Temp;Humidity;BMP_temperature;BMP_pressure;BME280_temperature;BME280_humidity;BME280_pressure;Samples;Min_cycle;Max_cycle;Signal;HPM_P1;HPM_P2
2022/12/13 00:01:20;;;;;;;22.40;10.27;;;;;;;;;;5034536;28;20227;-31
2022/12/13 00:03:47;;;;;;;18.47;9.87;;;;;;;;;;5029931;28;20213;-33
2022/12/13 00:06:14;;;;;;;16.83;9.37;;;;;;;;;;5032222;28;20202;-32
2022/12/13 00:08:41;;;;;;;17.40;9.87;;;;;;;;;;5033516;28;20223;-30
2022/12/13 00:11:09;;;;;;;15.50;9.10;;;;;;;;;;5027112;28;20602;-33
2022/12/13 00:13:38;;;;;;;19.57;9.97;;;;;;;;;;5017780;28;20210;-30
2022/12/13 00:16:06;;;;;;;15.37;9.50;;;;;;;;;;5033482;28;20199;-27
2022/12/13 00:18:33;;;;;;;17.30;9.43;;;;;;;;;;5026388;28;20272;-32
2022/12/13 00:21:04;;;;;;;18.50;10.33;;;;;;;;;;5021421;28;20227;-29
2022/12/13 00:23:31;;;;;;;17.77;9.83;;;;;;;;;;5030021;28;20691;-32
2022/12/13 00:26:02;;;;;;;23.70;11.07;;;;;;;;;;5024576;28;20207;-31
2022/12/13 00:28:29;;;;;;;33.63;16.00;;;;;;;;;;5015337;28;20207;-30
2022/12/13 00:30:58;;;;;;;55.50;22.87;;;;;;;;;;5031768;28;20223;-29
2022/12/13 00:33:25;;;;;;;30.40;15.60;;;;;;;;;;5029314;28;20205;-34
2022/12/13 00:35:53;;;;;;;51.40;24.40;;;;;;;;;;5024791;28;20202;-33
2022/12/13 00:38:20;;;;;;;39.83;17.80;;;;;;;;;;5035568;28;20238;-29
2022/12/13 00:40:47;;;;;;;34.40;17.63;;;;;;;;;;5026568;28;20241;-33
2022/12/13 00:43:14;;;;;;;32.00;15.30;;;;;;;;;;5013690;28;20233;-32
2022/12/13 00:45:42;;;;;;;31.37;16.40;;;;;;;;;;5034505;28;20683;-32
2022/12/13 00:48:10;;;;;;;22.90;12.30;;;;;;;;;;5031921;28;20206;-32
2022/12/13 00:50:38;;;;;;;26.73;13.53;;;;;;;;;;5022533;28;20226;-31
2022/12/13 00:53:05;;;;;;;23.93;12.77;;;;;;;;;;5024788;28;20211;-31
2022/12/13 00:55:33;;;;;;;25.03;11.97;;;;;;;;;;5030605;28;20202;-29
2022/12/13 00:58:00;;;;;;;20.97;11.17;;;;;;;;;;5024708;28;20868;-28
2022/12/13 01:00:27;;;;;;;20.17;11.50;;;;;;;;;;5030570;28;20857;-32
2022/12/13 01:02:54;;;;;;;18.20;10.93;;;;;;;;;;5031627;28;20221;-35
2022/12/13 01:05:22;;;;;;;18.50;11.13;;;;;;;;;;5026808;28;20206;-33
2022/12/13 01:07:50;;;;;;;20.57;10.03;;;;;;;;;;5031101;28;20210;-32
2022/12/13 01:10:17;;;;;;;18.73;10.37;;;;;;;;;;5030457;28;20203;-35
2022/12/13 01:12:46;;;;;;;19.33;10.43;;;;;;;;;;5021753;28;20609;-30
2022/12/13 01:15:13;;;;;;;20.17;10.30;;;;;;;;;;5028085;28;20202;-31
2022/12/13 01:17:40;;;;;;;17.07;9.00;;;;;;;;;;5027536;28;20207;-30
2022/12/13 01:20:08;;;;;;;19.17;10.23;;;;;;;;;;5015863;28;20211;-33
2022/12/13 01:22:36;;;;;;;17.77;9.63;;;;;;;;;;5024103;28;20230;-36
2022/12/13 01:25:03;;;;;;;17.17;10.10;;;;;;;;;;5031646;28;20210;-28
2022/12/13 01:27:30;;;;;;;17.07;9.43;;;;;;;;;;5022704;28;20217;-31
2022/12/13 01:29:58;;;;;;;14.63;9.17;;;;;;;;;;5030056;28;20209;-34
2022/12/13 01:32:25;;;;;;;16.87;9.77;;;;;;;;;;5024977;28;20333;-32
2022/12/13 01:34:52;;;;;;;17.10;9.43;;;;;;;;;;5024092;28;20249;-32
2022/12/13 01:37:19;;;;;;;19.27;9.97;;;;;;;;;;5030350;28;20202;-35
2022/12/13 01:39:48;;;;;;;14.00;9.57;;;;;;;;;;5030417;28;20210;-34
2022/12/13 01:42:15;;;;;;;15.53;9.37;;;;;;;;;;5016907;28;20609;-32
2022/12/13 01:44:59;;;;;;;16.00;8.67;;;;;;;;;;5023468;28;20234;-33
2022/12/13 01:47:28;;;;;;;18.90;10.23;;;;;;;;;;5031688;28;20233;-31
2022/12/13 01:49:57;;;;;;;13.17;8.57;;;;;;;;;;5024916;28;20213;-30
2022/12/13 01:52:25;;;;;;;17.67;9.90;;;;;;;;;;5023412;28;20250;-30
2022/12/13 01:54:55;;;;;;;13.10;8.23;;;;;;;;;;5030033;28;20210;-31
2022/12/13 01:57:23;;;;;;;17.67;9.83;;;;;;;;;;5015290;28;20210;-33
2022/12/13 01:59:51;;;;;;;16.53;9.30;;;;;;;;;;5022876;28;20668;-33
2022/12/13 02:02:18;;;;;;;15.50;8.87;;;;;;;;;;5014809;28;20234;-29
2022/12/13 02:04:49;;;;;;;12.37;8.63;;;;;;;;;;5027599;28;20697;-30
2022/12/13 02:07:17;;;;;;;14.60;8.73;;;;;;;;;;5020658;28;20205;-33
2022/12/13 02:09:45;;;;;;;17.50;9.20;;;;;;;;;;5025046;28;20675;-31
2022/12/13 02:12:14;;;;;;;15.90;9.83;;;;;;;;;;5022028;28;20234;-32
2022/12/13 02:14:41;;;;;;;17.60;9.87;;;;;;;;;;5029266;28;20230;-32
2022/12/13 02:17:14;;;;;;;15.47;9.43;;;;;;;;;;5030395;28;20649;-33
2022/12/13 02:19:59;;;;;;;13.60;8.20;;;;;;;;;;5023349;28;20293;-34
2022/12/13 02:22:33;;;;;;;13.77;8.23;;;;;;;;;;5023325;28;20229;-32
2022/12/13 02:25:09;;;;;;;11.20;6.57;;;;;;;;;;5030007;28;20206;-32
2022/12/13 02:27:51;;;;;;;13.37;7.47;;;;;;;;;;5022503;28;20206;-31
2022/12/13 02:30:21;;;;;;;14.73;8.23;;;;;;;;;;5034520;28;20202;-33
2022/12/13 02:33:03;;;;;;;14.77;7.57;;;;;;;;;;5031143;28;20210;-31
2022/12/13 02:35:33;;;;;;;13.50;8.10;;;;;;;;;;5011086;28;20419;-30
2022/12/13 02:38:04;;;;;;;13.73;8.40;;;;;;;;;;5029958;28;20198;-30
2022/12/13 02:40:32;;;;;;;14.70;7.97;;;;;;;;;;5027336;28;20246;-30
2022/12/13 02:43:03;;;;;;;14.63;8.17;;;;;;;;;;5028641;28;20231;-29
2022/12/13 02:45:34;;;;;;;10.33;7.23;;;;;;;;;;5037451;28;20201;-33
2022/12/13 02:48:04;;;;;;;13.37;7.93;;;;;;;;;;5034456;28;20356;-35
2022/12/13 02:50:32;;;;;;;15.20;8.37;;;;;;;;;;5025133;28;20785;-36
2022/12/13 02:53:00;;;;;;;18.93;9.67;;;;;;;;;;5026211;28;20791;-31
2022/12/13 02:55:27;;;;;;;13.23;8.40;;;;;;;;;;5034056;28;20642;-34
2022/12/13 02:57:55;;;;;;;14.67;9.23;;;;;;;;;;5025904;28;20242;-34
2022/12/13 03:00:23;;;;;;;18.43;9.47;;;;;;;;;;5032652;28;20225;-33
2022/12/13 03:03:01;;;;;;;13.37;7.73;;;;;;;;;;5033809;28;20221;-30
2022/12/13 03:08:21;;;;;;;14.57;7.53;;;;;;;;;;5037180;28;20210;-32
2022/12/13 03:10:51;;;;;;;14.03;8.33;;;;;;;;;;5028511;28;20227;-33
2022/12/13 03:13:35;;;;;;;17.53;8.10;;;;;;;;;;5015865;28;20199;-30
2022/12/13 03:16:06;;;;;;;16.33;8.13;;;;;;;;;;5036023;28;20289;-33
2022/12/13 03:18:35;;;;;;;13.73;6.93;;;;;;;;;;5029019;28;20752;-31
2022/12/13 03:21:03;;;;;;;14.33;7.97;;;;;;;;;;5025514;28;20234;-33
2022/12/13 03:23:30;;;;;;;9.20;5.87;;;;;;;;;;5030996;28;20242;-33
2022/12/13 03:25:59;;;;;;;12.97;7.60;;;;;;;;;;5018086;28;20215;-30
2022/12/13 03:28:26;;;;;;;10.50;6.83;;;;;;;;;;5025472;28;20203;-31
2022/12/13 03:30:53;;;;;;;14.67;8.20;;;;;;;;;;5036271;28;20222;-34
2022/12/13 03:33:21;;;;;;;14.53;8.07;;;;;;;;;;5035051;28;20637;-33
2022/12/13 03:35:50;;;;;;;11.93;7.63;;;;;;;;;;5023950;28;20270;-29
2022/12/13 03:38:18;;;;;;;15.73;8.40;;;;;;;;;;5026568;28;20418;-30
2022/12/13 03:40:45;;;;;;;13.40;8.10;;;;;;;;;;5028072;28;20572;-30
2022/12/13 03:43:13;;;;;;;12.60;7.53;;;;;;;;;;5018164;28;20700;-32
2022/12/13 03:45:40;;;;;;;14.37;7.30;;;;;;;;;;5035987;28;20290;-32
2022/12/13 03:48:07;;;;;;;13.40;7.50;;;;;;;;;;5029502;28;20213;-29
2022/12/13 03:50:34;;;;;;;12.37;7.57;;;;;;;;;;5027629;28;20254;-35
2022/12/13 03:53:03;;;;;;;13.63;8.13;;;;;;;;;;5026574;28;20226;-32
2022/12/13 03:55:30;;;;;;;14.30;8.03;;;;;;;;;;5024978;28;20631;-30
2022/12/13 03:57:57;;;;;;;15.80;8.70;;;;;;;;;;5023907;28;20211;-34
2022/12/13 04:00:25;;;;;;;14.90;8.70;;;;;;;;;;5014998;28;20199;-31
2022/12/13 04:02:52;;;;;;;14.50;8.37;;;;;;;;;;5030790;28;20218;-37
2022/12/13 04:05:19;;;;;;;13.37;7.87;;;;;;;;;;5023546;28;20633;-34
2022/12/13 04:10:16;;;;;;;10.70;6.63;;;;;;;;;;5051497;28;20297;-37
2022/12/13 04:15:28;;;;;;;15.53;8.10;;;;;;;;;;5036943;28;20245;-34
2022/12/13 04:17:55;;;;;;;9.50;6.63;;;;;;;;;;5051587;28;20221;-39
2022/12/13 04:20:22;;;;;;;13.20;7.43;;;;;;;;;;5047889;28;20289;-37
2022/12/13 04:22:49;;;;;;;14.33;7.60;;;;;;;;;;5053159;28;20202;-36
2022/12/13 04:25:19;;;;;;;12.20;7.47;;;;;;;;;;5048591;28;20204;-39
2022/12/13 04:27:46;;;;;;;12.93;6.90;;;;;;;;;;5046443;28;20408;-33
2022/12/13 04:30:13;;;;;;;14.00;8.10;;;;;;;;;;5044769;28;20337;-31
2022/12/13 04:32:40;;;;;;;11.13;6.67;;;;;;;;;;5053770;28;20202;-37
2022/12/13 04:35:08;;;;;;;10.87;7.27;;;;;;;;;;5050799;28;20202;-34
2022/12/13 04:37:35;;;;;;;12.37;6.87;;;;;;;;;;5044441;28;20293;-35
2022/12/13 04:40:02;;;;;;;13.33;7.90;;;;;;;;;;5036680;28;20218;-34
2022/12/13 04:42:31;;;;;;;10.90;6.43;;;;;;;;;;5041356;28;20222;-37
2022/12/13 04:44:58;;;;;;;13.90;6.47;;;;;;;;;;5044121;28;20226;-36
2022/12/13 04:47:25;;;;;;;10.73;5.87;;;;;;;;;;5051322;28;20312;-31
2022/12/13 04:49:52;;;;;;;12.77;7.17;;;;;;;;;;5049520;28;20213;-38
2022/12/13 04:52:20;;;;;;;14.07;7.23;;;;;;;;;;5047478;28;20253;-36
2022/12/13 04:54:47;;;;;;;11.00;6.67;;;;;;;;;;5054333;28;20551;-31
2022/12/13 04:57:14;;;;;;;13.63;7.63;;;;;;;;;;5040024;28;20212;-32
2022/12/13 04:59:45;;;;;;;9.70;6.37;;;;;;;;;;5040032;28;20696;-32
2022/12/13 05:02:13;;;;;;;12.47;6.83;;;;;;;;;;5034515;28;20238;-37
2022/12/13 05:04:40;;;;;;;13.17;7.60;;;;;;;;;;5033944;28;20223;-33
2022/12/13 05:07:07;;;;;;;12.93;6.93;;;;;;;;;;5037406;28;20289;-37
2022/12/13 05:09:34;;;;;;;11.30;6.83;;;;;;;;;;5044270;28;20426;-38
2022/12/13 05:12:01;;;;;;;14.77;8.70;;;;;;;;;;5044835;28;20231;-33
2022/12/13 05:14:29;;;;;;;13.20;7.97;;;;;;;;;;5040325;28;20202;-29
2022/12/13 05:16:57;;;;;;;15.60;7.10;;;;;;;;;;5047705;28;20206;-35
2022/12/13 05:19:24;;;;;;;15.90;7.60;;;;;;;;;;5053204;28;20206;-29
2022/12/13 05:21:51;;;;;;;12.67;7.33;;;;;;;;;;5042937;28;20222;-35
2022/12/13 05:24:19;;;;;;;14.50;7.40;;;;;;;;;;5048574;28;20289;-35
2022/12/13 05:26:46;;;;;;;13.03;7.07;;;;;;;;;;5038435;28;20289;-30
2022/12/13 05:29:13;;;;;;;13.20;7.00;;;;;;;;;;5050921;28;20237;-32
2022/12/13 05:31:40;;;;;;;12.27;7.63;;;;;;;;;;5033666;28;20226;-31
2022/12/13 05:34:09;;;;;;;13.00;7.70;;;;;;;;;;5040540;28;20302;-33
2022/12/13 05:36:36;;;;;;;14.07;7.57;;;;;;;;;;5041672;28;20285;-38
2022/12/13 05:39:10;;;;;;;13.03;7.07;;;;;;;;;;5034431;28;20214;-34
2022/12/13 05:41:38;;;;;;;16.77;7.50;;;;;;;;;;5041458;28;20231;-31
2022/12/13 05:44:05;;;;;;;13.47;7.10;;;;;;;;;;5041044;28;20257;-33
2022/12/13 05:46:32;;;;;;;11.83;6.73;;;;;;;;;;5034342;28;20303;-33
2022/12/13 05:48:59;;;;;;;13.67;7.83;;;;;;;;;;5053274;28;20296;-39
2022/12/13 05:51:28;;;;;;;12.27;6.70;;;;;;;;;;5039930;28;20230;-31
2022/12/13 05:53:55;;;;;;;12.60;6.73;;;;;;;;;;5046986;28;20209;-34
2022/12/13 05:56:22;;;;;;;10.30;6.57;;;;;;;;;;5041698;28;20201;-38
2022/12/13 05:58:49;;;;;;;10.13;6.43;;;;;;;;;;5043796;28;20202;-35
2022/12/13 06:01:16;;;;;;;11.37;6.23;;;;;;;;;;5042817;28;20226;-36
2022/12/13 06:03:44;;;;;;;12.97;8.07;;;;;;;;;;5053020;28;20232;-35
2022/12/13 06:06:11;;;;;;;11.70;7.30;;;;;;;;;;5049763;28;20210;-36
2022/12/13 06:08:40;;;;;;;10.97;6.77;;;;;;;;;;5035954;28;20685;-29
2022/12/13 06:11:08;;;;;;;13.20;7.03;;;;;;;;;;5048622;28;20269;-35
2022/12/13 06:13:56;;;;;;;10.73;6.07;;;;;;;;;;5043992;28;20202;-34
2022/12/13 06:16:24;;;;;;;11.60;7.40;;;;;;;;;;5031615;28;20226;-35
2022/12/13 06:18:51;;;;;;;9.97;6.97;;;;;;;;;;5045111;28;20213;-32
2022/12/13 06:21:18;;;;;;;13.47;7.07;;;;;;;;;;5052877;28;20225;-32
2022/12/13 06:23:46;;;;;;;9.07;5.87;;;;;;;;;;5040862;28;20219;-35
2022/12/13 06:26:14;;;;;;;14.23;7.20;;;;;;;;;;5035044;28;20214;-32
2022/12/13 06:28:41;;;;;;;11.57;6.97;;;;;;;;;;5046394;28;20214;-36
2022/12/13 06:31:09;;;;;;;12.40;6.47;;;;;;;;;;5048682;28;20228;-34
2022/12/13 06:33:37;;;;;;;11.10;7.27;;;;;;;;;;5038360;28;20223;-33
2022/12/13 06:36:05;;;;;;;14.80;8.00;;;;;;;;;;5045248;28;20209;-35
2022/12/13 06:38:32;;;;;;;9.63;6.03;;;;;;;;;;5053262;28;20210;-37
2022/12/13 06:41:11;;;;;;;12.67;8.17;;;;;;;;;;5031554;28;20540;-34
2022/12/13 06:43:39;;;;;;;8.37;5.50;;;;;;;;;;5046373;28;20229;-31
2022/12/13 06:46:06;;;;;;;9.13;6.17;;;;;;;;;;5041265;28;20212;-36
2022/12/13 06:48:39;;;;;;;12.30;7.40;;;;;;;;;;5054915;28;20190;-37
2022/12/13 06:51:07;;;;;;;11.07;5.93;;;;;;;;;;5037318;28;20260;-34
2022/12/13 06:53:35;;;;;;;11.20;6.53;;;;;;;;;;5039938;28;20202;-31
2022/12/13 06:56:04;;;;;;;8.10;5.27;;;;;;;;;;5052932;28;20199;-35
2022/12/13 06:58:33;;;;;;;8.20;5.37;;;;;;;;;;5034673;28;20210;-29
2022/12/13 07:01:03;;;;;;;9.67;5.77;;;;;;;;;;5043659;28;20221;-38
2022/12/13 07:03:31;;;;;;;12.80;6.53;;;;;;;;;;5048790;28;20210;-39
2022/12/13 07:05:58;;;;;;;8.60;4.83;;;;;;;;;;5045480;28;20221;-40
2022/12/13 07:08:25;;;;;;;8.83;4.40;;;;;;;;;;5049216;28;20210;-39
2022/12/13 07:10:54;;;;;;;11.80;8.07;;;;;;;;;;5044753;28;20225;-37
2022/12/13 07:13:21;;;;;;;11.50;6.53;;;;;;;;;;5031779;28;20210;-33
2022/12/13 07:15:50;;;;;;;4.93;3.00;;;;;;;;;;5037835;28;20202;-38
2022/12/13 07:18:17;;;;;;;9.07;5.93;;;;;;;;;;5032458;28;20203;-37
2022/12/13 07:20:45;;;;;;;14.07;7.50;;;;;;;;;;5043490;28;20228;-39
2022/12/13 07:23:12;;;;;;;3.97;2.97;;;;;;;;;;5043487;28;20216;-31
2022/12/13 07:25:40;;;;;;;9.63;5.90;;;;;;;;;;5042369;28;20218;-30
2022/12/13 07:28:08;;;;;;;11.40;6.20;;;;;;;;;;5048057;28;20206;-36
2022/12/13 07:30:36;;;;;;;14.10;8.00;;;;;;;;;;5043352;28;20710;-37
2022/12/13 07:33:04;;;;;;;13.23;8.10;;;;;;;;;;5035946;28;20210;-39
2022/12/13 07:35:32;;;;;;;7.93;5.77;;;;;;;;;;5038371;28;20254;-36
2022/12/13 07:37:59;;;;;;;11.57;5.97;;;;;;;;;;5053480;28;20300;-34
2022/12/13 07:40:26;;;;;;;14.73;7.97;;;;;;;;;;5046260;28;20210;-33
2022/12/13 07:42:54;;;;;;;13.60;6.23;;;;;;;;;;5042089;28;20209;-35
2022/12/13 07:45:21;;;;;;;12.70;6.47;;;;;;;;;;5047206;28;20228;-37
2022/12/13 07:47:49;;;;;;;14.00;7.90;;;;;;;;;;5036225;28;20209;-33
2022/12/13 07:50:19;;;;;;;12.13;7.23;;;;;;;;;;5041612;28;20205;-33
2022/12/13 07:52:46;;;;;;;13.70;7.60;;;;;;;;;;5041294;28;20206;-34
2022/12/13 07:55:13;;;;;;;16.83;8.57;;;;;;;;;;5046627;28;20209;-34
2022/12/13 07:57:40;;;;;;;14.97;8.90;;;;;;;;;;5044179;28;20199;-31
2022/12/13 08:00:08;;;;;;;16.63;8.63;;;;;;;;;;5042648;28;20563;-32
2022/12/13 08:02:35;;;;;;;15.57;6.63;;;;;;;;;;5055306;28;20206;-33
2022/12/13 08:05:02;;;;;;;12.30;6.90;;;;;;;;;;5043960;28;20237;-38
2022/12/13 08:07:31;;;;;;;16.83;9.70;;;;;;;;;;5041663;28;20219;-32
2022/12/13 08:09:58;;;;;;;13.20;6.23;;;;;;;;;;5054169;28;20210;-36
2022/12/13 08:12:25;;;;;;;14.67;8.40;;;;;;;;;;5037644;28;20223;-34
2022/12/13 08:14:55;;;;;;;14.30;8.37;;;;;;;;;;5038909;28;20257;-31
2022/12/13 08:17:22;;;;;;;14.17;8.17;;;;;;;;;;5043439;28;20290;-35
2022/12/13 08:19:50;;;;;;;15.83;7.63;;;;;;;;;;5043178;28;20194;-33
2022/12/13 08:22:17;;;;;;;15.50;9.07;;;;;;;;;;5040150;28;20589;-29
2022/12/13 08:24:46;;;;;;;14.37;6.33;;;;;;;;;;5044325;28;20222;-35
2022/12/13 08:27:13;;;;;;;17.20;9.10;;;;;;;;;;5044582;28;20234;-34
2022/12/13 08:29:41;;;;;;;13.30;7.67;;;;;;;;;;5039464;28;20226;-37
2022/12/13 08:32:09;;;;;;;10.97;5.23;;;;;;;;;;5041916;28;20313;-32
2022/12/13 08:34:37;;;;;;;16.43;9.17;;;;;;;;;;5039829;28;20201;-31
2022/12/13 08:37:04;;;;;;;11.80;7.63;;;;;;;;;;5034642;28;20198;-30
2022/12/13 08:39:33;;;;;;;13.97;8.40;;;;;;;;;;5046790;28;20288;-33
2022/12/13 08:42:01;;;;;;;15.33;8.73;;;;;;;;;;5039721;28;20222;-34
2022/12/13 08:44:29;;;;;;;16.73;9.33;;;;;;;;;;5034800;28;20218;-34
2022/12/13 08:46:56;;;;;;;15.47;8.80;;;;;;;;;;5038005;28;20203;-29
2022/12/13 08:49:23;;;;;;;19.30;9.63;;;;;;;;;;5036614;28;20212;-29
2022/12/13 08:51:50;;;;;;;12.90;7.37;;;;;;;;;;5039936;28;20228;-38
2022/12/13 08:54:17;;;;;;;16.57;10.57;;;;;;;;;;5042303;28;20374;-36
2022/12/13 08:56:46;;;;;;;15.17;9.40;;;;;;;;;;5041917;28;20198;-35
2022/12/13 08:59:14;;;;;;;12.13;7.30;;;;;;;;;;5038210;28;20210;-35
2022/12/13 09:01:42;;;;;;;12.87;7.63;;;;;;;;;;5040016;28;20239;-34
2022/12/13 09:04:09;;;;;;;16.13;8.60;;;;;;;;;;5045213;28;20297;-30
2022/12/13 09:06:36;;;;;;;13.87;9.07;;;;;;;;;;5041363;28;20206;-31
2022/12/13 09:09:03;;;;;;;8.60;5.77;;;;;;;;;;5036446;28;20309;-39
2022/12/13 09:11:30;;;;;;;15.90;8.13;;;;;;;;;;5039945;28;20499;-35
2022/12/13 09:13:58;;;;;;;17.47;9.70;;;;;;;;;;5035285;28;20214;-35
2022/12/13 09:16:26;;;;;;;15.13;9.27;;;;;;;;;;5045777;28;20202;-29
2022/12/13 09:18:54;;;;;;;15.13;9.07;;;;;;;;;;5038282;28;20294;-36
2022/12/13 09:21:21;;;;;;;15.03;9.37;;;;;;;;;;5036240;28;20304;-32
2022/12/13 09:23:48;;;;;;;15.93;8.73;;;;;;;;;;5041783;28;20202;-33
2022/12/13 09:26:16;;;;;;;13.60;8.87;;;;;;;;;;5045895;28;20224;-30
2022/12/13 09:28:43;;;;;;;14.30;7.07;;;;;;;;;;5047335;28;20210;-31
2022/12/13 09:31:11;;;;;;;21.07;16.30;;;;;;;;;;5052450;28;20228;-35
2022/12/13 09:33:40;;;;;;;28.03;25.10;;;;;;;;;;5053665;28;20204;-34
2022/12/13 09:36:08;;;;;;;24.37;19.33;;;;;;;;;;5048367;28;20206;-34
2022/12/13 09:38:35;;;;;;;29.23;24.40;;;;;;;;;;5039886;28;20206;-35
2022/12/13 09:41:08;;;;;;;19.27;12.57;;;;;;;;;;5039160;28;20290;-33
2022/12/13 09:43:36;;;;;;;14.50;9.60;;;;;;;;;;5035592;28;20230;-33
2022/12/13 09:46:06;;;;;;;18.07;11.40;;;;;;;;;;5041902;28;20351;-36
2022/12/13 09:48:33;;;;;;;16.37;8.30;;;;;;;;;;5033823;28;20213;-37
2022/12/13 09:51:04;;;;;;;16.13;12.10;;;;;;;;;;5042825;22;20262;-39
2022/12/13 09:53:35;;;;;;;10.07;9.03;;;;;;;;;;5047878;28;20213;-40
2022/12/13 09:56:07;;;;;;;14.93;8.53;;;;;;;;;;5045802;28;20256;-40
2022/12/13 09:58:36;;;;;;;7.83;7.10;;;;;;;;;;5034606;28;20218;-39
2022/12/13 10:01:08;;;;;;;11.30;7.60;;;;;;;;;;5047689;28;20250;-34
2022/12/13 10:11:13;;;;;;;10.17;8.87;;;;;;;;;;4998963;28;20234;-35
2022/12/13 10:13:41;;;;;;;14.70;9.97;;;;;;;;;;5012038;28;20212;-31
2022/12/13 10:16:10;;;;;;;15.40;7.60;;;;;;;;;;5018999;28;20206;-33
2022/12/13 10:18:38;;;;;;;13.10;7.60;;;;;;;;;;5010161;28;20270;-33
2022/12/13 10:21:08;;;;;;;13.73;8.23;;;;;;;;;;5016388;28;20233;-36
2022/12/13 10:23:35;;;;;;;10.93;7.17;;;;;;;;;;5017466;28;20207;-33
2022/12/13 10:26:02;;;;;;;10.97;7.53;;;;;;;;;;5007953;28;20257;-30
2022/12/13 10:28:32;;;;;;;12.77;7.93;;;;;;;;;;5011273;28;20677;-34
2022/12/13 10:31:00;;;;;;;10.30;6.80;;;;;;;;;;5021749;28;20265;-34
2022/12/13 10:33:29;;;;;;;11.33;6.50;;;;;;;;;;5028218;28;20213;-30
2022/12/13 10:36:07;;;;;;;16.10;7.80;;;;;;;;;;5010189;28;20202;-33
2022/12/13 10:38:36;;;;;;;12.27;6.63;;;;;;;;;;5009970;28;20339;-34
2022/12/13 10:41:04;;;;;;;11.73;6.97;;;;;;;;;;5009035;28;20233;-31
2022/12/13 10:43:34;;;;;;;10.33;7.37;;;;;;;;;;5013191;28;20696;-31
2022/12/13 10:46:02;;;;;;;11.17;6.77;;;;;;;;;;5016536;28;20227;-34
2022/12/13 10:48:33;;;;;;;15.00;8.53;;;;;;;;;;5018146;28;20237;-34
2022/12/13 10:51:02;;;;;;;10.60;6.90;;;;;;;;;;5010227;28;20266;-31
2022/12/13 10:53:30;;;;;;;13.80;6.97;;;;;;;;;;5019660;28;20253;-32
2022/12/13 10:55:58;;;;;;;10.77;6.20;;;;;;;;;;5009264;28;20204;-30
2022/12/13 10:58:34;;;;;;;6.97;4.23;;;;;;;;;;5012040;28;20217;-30
2022/12/13 11:01:10;;;;;;;10.43;6.00;;;;;;;;;;5018030;28;20685;-32
2022/12/13 11:03:37;;;;;;;12.80;6.60;;;;;;;;;;5013421;28;20217;-32
2022/12/13 11:06:06;;;;;;;9.77;5.93;;;;;;;;;;5013009;28;20241;-31
2022/12/13 11:08:34;;;;;;;9.83;5.83;;;;;;;;;;5016107;28;20726;-34
2022/12/13 11:11:02;;;;;;;8.97;6.00;;;;;;;;;;5025098;28;20753;-28
2022/12/13 11:13:35;;;;;;;8.80;5.47;;;;;;;;;;5013213;28;20210;-32
2022/12/13 11:16:03;;;;;;;11.07;7.03;;;;;;;;;;5033646;28;20202;-32
2022/12/13 11:18:36;;;;;;;9.73;5.80;;;;;;;;;;5033381;28;20206;-30
2022/12/13 11:21:03;;;;;;;6.10;5.47;;;;;;;;;;5023501;28;20227;-34
2022/12/13 11:23:33;;;;;;;10.57;6.00;;;;;;;;;;5022898;28;20247;-33
2022/12/13 11:26:02;;;;;;;9.33;5.97;;;;;;;;;;5019210;28;20215;-34
2022/12/13 11:28:41;;;;;;;11.27;6.40;;;;;;;;;;5017296;28;20218;-32
2022/12/13 11:31:14;;;;;;;9.33;6.50;;;;;;;;;;5029035;28;20233;-33
2022/12/13 11:33:48;;;;;;;11.90;6.30;;;;;;;;;;5011265;28;20200;-31
2022/12/13 11:36:21;;;;;;;12.90;6.47;;;;;;;;;;5020530;28;20670;-35
2022/12/13 11:38:58;;;;;;;13.17;6.90;;;;;;;;;;5005755;28;20213;-28
2022/12/13 11:41:28;;;;;;;16.10;8.67;;;;;;;;;;5010229;28;20285;-31
2022/12/13 11:43:57;;;;;;;8.63;5.37;;;;;;;;;;5007793;28;20685;-29
2022/12/13 11:46:31;;;;;;;8.73;5.77;;;;;;;;;;5012903;28;20254;-32
2022/12/13 11:49:01;;;;;;;10.90;6.43;;;;;;;;;;5012731;28;20214;-33
2022/12/13 11:51:34;;;;;;;12.77;7.40;;;;;;;;;;5010792;28;20568;-31
2022/12/13 11:54:03;;;;;;;8.67;5.77;;;;;;;;;;5027853;28;20243;-32
2022/12/13 11:56:32;;;;;;;10.37;7.33;;;;;;;;;;5015168;28;20204;-28
2022/12/13 11:59:03;;;;;;;10.10;5.07;;;;;;;;;;5021187;28;20199;-34
2022/12/13 12:01:32;;;;;;;7.37;5.00;;;;;;;;;;5015645;28;20583;-31
2022/12/13 12:04:05;;;;;;;9.83;5.60;;;;;;;;;;5013360;28;20208;-31
2022/12/13 12:06:34;;;;;;;9.37;6.43;;;;;;;;;;5011923;28;20318;-30
2022/12/13 12:09:02;;;;;;;9.17;6.27;;;;;;;;;;5028247;28;20202;-28
2022/12/13 12:11:32;;;;;;;7.70;4.80;;;;;;;;;;5011799;28;20233;-35
2022/12/13 12:14:03;;;;;;;7.83;5.63;;;;;;;;;;5013291;28;20199;-34
2022/12/13 12:16:33;;;;;;;10.93;5.80;;;;;;;;;;5014778;28;20187;-29
2022/12/13 12:19:02;;;;;;;7.57;5.27;;;;;;;;;;5012707;28;20214;-28
2022/12/13 12:21:37;;;;;;;8.17;6.30;;;;;;;;;;5011874;28;20219;-33
2022/12/13 12:24:10;;;;;;;7.63;6.17;;;;;;;;;;5015877;28;20207;-31
2022/12/13 12:26:41;;;;;;;7.27;5.63;;;;;;;;;;5014227;28;20238;-30
2022/12/13 12:29:18;;;;;;;4.30;2.90;;;;;;;;;;5023126;28;20633;-28
2022/12/13 12:31:52;;;;;;;10.50;6.60;;;;;;;;;;5021147;28;20898;-32
2022/12/13 12:34:24;;;;;;;9.37;5.77;;;;;;;;;;5015064;28;20904;-33
2022/12/13 12:36:56;;;;;;;12.40;5.30;;;;;;;;;;5015839;28;20206;-30
2022/12/13 12:39:33;;;;;;;11.07;5.73;;;;;;;;;;5031547;28;20198;-28
2022/12/13 12:42:07;;;;;;;8.27;4.90;;;;;;;;;;5018810;28;20233;-34
2022/12/13 12:44:41;;;;;;;7.30;3.40;;;;;;;;;;5016593;28;20217;-32
2022/12/13 12:47:14;;;;;;;6.67;4.10;;;;;;;;;;5019604;28;20214;-29
2022/12/13 12:49:57;;;;;;;6.70;4.00;;;;;;;;;;5015919;28;20199;-29
2022/12/13 12:52:31;;;;;;;7.93;5.43;;;;;;;;;;5013868;28;20231;-30
2022/12/13 12:55:03;;;;;;;8.27;4.73;;;;;;;;;;5025767;28;20203;-28
2022/12/13 12:57:37;;;;;;;7.43;5.47;;;;;;;;;;5011583;28;20235;-29
2022/12/13 13:00:09;;;;;;;8.87;5.33;;;;;;;;;;5017364;28;20206;-32
2022/12/13 13:02:39;;;;;;;7.33;4.13;;;;;;;;;;5013574;28;20242;-29
2022/12/13 13:05:13;;;;;;;10.50;6.23;;;;;;;;;;5012679;28;20216;-31
2022/12/13 13:07:42;;;;;;;8.77;5.97;;;;;;;;;;5013347;28;20205;-29
2022/12/13 13:10:10;;;;;;;5.50;3.83;;;;;;;;;;5014638;28;20211;-33
2022/12/13 13:12:39;;;;;;;8.87;5.53;;;;;;;;;;5010195;28;20225;-33
2022/12/13 13:15:21;;;;;;;9.77;5.83;;;;;;;;;;5020458;28;20214;-35
2022/12/13 13:17:48;;;;;;;8.87;5.23;;;;;;;;;;4994294;28;20212;-28
2022/12/13 13:20:22;;;;;;;11.03;7.17;;;;;;;;;;5007944;28;20203;-34
2022/12/13 13:22:49;;;;;;;12.50;5.80;;;;;;;;;;5006373;28;20661;-28
2022/12/13 13:25:25;;;;;;;9.33;5.33;;;;;;;;;;5013205;28;20239;-29
2022/12/13 13:27:53;;;;;;;9.70;5.50;;;;;;;;;;5012797;28;20206;-30
2022/12/13 13:30:22;;;;;;;10.13;5.17;;;;;;;;;;5028925;28;20206;-33
2022/12/13 13:32:50;;;;;;;13.90;6.73;;;;;;;;;;5013802;28;20215;-29
2022/12/13 13:35:49;;;;;;;12.70;7.20;;;;;;;;;;5010919;28;20207;-36
2022/12/13 13:38:27;;;;;;;10.23;5.37;;;;;;;;;;5030144;28;20195;-29
2022/12/13 13:40:55;;;;;;;8.53;5.63;;;;;;;;;;5025817;28;20561;-35
2022/12/13 13:43:28;;;;;;;10.47;5.50;;;;;;;;;;5010371;28;20229;-34
2022/12/13 13:45:59;;;;;;;9.67;4.17;;;;;;;;;;5026980;28;20214;-32
2022/12/13 13:48:39;;;;;;;6.17;4.47;;;;;;;;;;5033524;28;20799;-33
2022/12/13 13:51:21;;;;;;;6.30;4.43;;;;;;;;;;5011668;28;20630;-36
2022/12/13 13:54:09;;;;;;;10.93;5.33;;;;;;;;;;5013126;28;20731;-32
2022/12/13 13:56:45;;;;;;;10.97;5.80;;;;;;;;;;5013135;28;20206;-31
2022/12/13 13:59:27;;;;;;;10.77;5.60;;;;;;;;;;5013888;28;20218;-30
2022/12/13 14:02:02;;;;;;;12.47;4.73;;;;;;;;;;5008564;28;20227;-31
2022/12/13 14:04:50;;;;;;;7.53;5.23;;;;;;;;;;5014858;28;20227;-36
2022/12/13 14:07:32;;;;;;;10.63;4.97;;;;;;;;;;5023718;28;20696;-32
2022/12/13 14:10:17;;;;;;;6.43;4.80;;;;;;;;;;5013879;28;20222;-30
2022/12/13 14:13:09;;;;;;;11.40;4.97;;;;;;;;;;5015496;28;20766;-33
2022/12/13 14:16:09;;;;;;;11.53;4.77;;;;;;;;;;5024594;28;20195;-29
2022/12/13 14:19:04;;;;;;;8.67;5.30;;;;;;;;;;5013024;28;20207;-31
2022/12/13 14:21:36;;;;;;;8.27;5.07;;;;;;;;;;5013744;28;20223;-36
2022/12/13 14:24:08;;;;;;;10.80;5.60;;;;;;;;;;5022731;28;20192;-29
2022/12/13 14:26:41;;;;;;;11.73;6.40;;;;;;;;;;5013466;28;20211;-30
2022/12/13 14:29:14;;;;;;;13.60;6.37;;;;;;;;;;5012913;28;20234;-31
2022/12/13 14:31:42;;;;;;;9.73;4.63;;;;;;;;;;5013337;28;20223;-37
2022/12/13 14:34:17;;;;;;;9.20;5.73;;;;;;;;;;5012050;28;20214;-31
2022/12/13 14:36:45;;;;;;;12.50;6.00;;;;;;;;;;5016783;28;20213;-28
2022/12/13 14:39:15;;;;;;;12.47;6.70;;;;;;;;;;5012554;28;20235;-30
2022/12/13 14:41:46;;;;;;;10.63;6.57;;;;;;;;;;5003217;28;20222;-31
2022/12/13 14:44:16;;;;;;;8.20;5.03;;;;;;;;;;5020102;28;20203;-30
2022/12/13 14:46:50;;;;;;;9.53;5.13;;;;;;;;;;5027298;28;20250;-35
2022/12/13 14:49:17;;;;;;;9.00;6.10;;;;;;;;;;5006760;28;20218;-34
2022/12/13 14:51:44;;;;;;;11.37;6.17;;;;;;;;;;5019244;28;20222;-33
2022/12/13 14:54:18;;;;;;;8.80;5.80;;;;;;;;;;5032249;28;20207;-34
2022/12/13 14:56:56;;;;;;;12.00;6.30;;;;;;;;;;5003220;28;20207;-34
2022/12/13 14:59:25;;;;;;;8.00;4.67;;;;;;;;;;5012561;28;20233;-31
2022/12/13 15:01:56;;;;;;;7.20;4.63;;;;;;;;;;5020709;28;20222;-33